sensor_id;sensor_type;location;lat;lon;timestamp;P1;durP1;ratioP1;P2;durP2;ratioP2
42760;SDS011;31672;47.638;19.026;2023-03-01T00:03:48;20.10;;;12.20;;
42760;SDS011;31672;47.638;19.026;2023-03-01T00:08:51;23.87;;;14.27;;
42760;SDS011;31672;47.638;19.026;2023-03-01T00:13:56;27.57;;;15.30;;
42760;SDS011;31672;47.638;19.026;2023-03-01T00:19:03;22.33;;;13.80;;
42760;SDS011;31672;47.638;19.026;2023-03-01T00:24:07;23.40;;;14.27;;
42760;SDS011;31672;47.638;19.026;2023-03-01T00:29:10;24.23;;;14.57;;
42760;SDS011;31672;47.638;19.026;2023-03-01T00:34:13;21.33;;;13.10;;
42760;SDS011;31672;47.638;19.026;2023-03-01T00:39:16;22.87;;;13.63;;
42760;SDS011;31672;47.638;19.026;2023-03-01T00:44:19;28.33;;;16.60;;
42760;SDS011;31672;47.638;19.026;2023-03-01T00:49:22;22.73;;;13.47;;
42760;SDS011;31672;47.638;19.026;2023-03-01T00:54:29;28.47;;;14.53;;
42760;SDS011;31672;47.638;19.026;2023-03-01T00:59:32;24.50;;;15.13;;
42760;SDS011;31672;47.638;19.026;2023-03-01T01:04:35;24.00;;;13.93;;
42760;SDS011;31672;47.638;19.026;2023-03-01T01:09:38;26.30;;;15.77;;
42760;SDS011;31672;47.638;19.026;2023-03-01T01:14:41;26.13;;;15.23;;
42760;SDS011;31672;47.638;19.026;2023-03-01T01:19:44;22.17;;;13.43;;
42760;SDS011;31672;47.638;19.026;2023-03-01T01:24:47;21.37;;;12.40;;
42760;SDS011;31672;47.638;19.026;2023-03-01T01:29:52;23.57;;;14.20;;
42760;SDS011;31672;47.638;19.026;2023-03-01T01:34:55;23.73;;;13.70;;
42760;SDS011;31672;47.638;19.026;2023-03-01T01:39:59;20.27;;;13.43;;
42760;SDS011;31672;47.638;19.026;2023-03-01T01:50:30;23.67;;;14.10;;
42760;SDS011;31672;47.638;19.026;2023-03-01T01:55:41;26.73;;;16.33;;
42760;SDS011;31672;47.638;19.026;2023-03-01T02:00:51;28.55;;;18.08;;
42760;SDS011;31672;47.638;19.026;2023-03-01T02:06:17;23.00;;;13.63;;
42760;SDS011;31672;47.638;19.026;2023-03-01T02:11:41;20.33;;;12.77;;
42760;SDS011;31672;47.638;19.026;2023-03-01T02:16:46;25.63;;;12.03;;
42760;SDS011;31672;47.638;19.026;2023-03-01T02:27:26;22.37;;;12.43;;
42760;SDS011;31672;47.638;19.026;2023-03-01T02:32:43;19.53;;;11.97;;
42760;SDS011;31672;47.638;19.026;2023-03-01T02:37:46;18.53;;;10.90;;
42760;SDS011;31672;47.638;19.026;2023-03-01T02:42:52;17.40;;;10.10;;
42760;SDS011;31672;47.638;19.026;2023-03-01T02:47:58;17.23;;;10.90;;
42760;SDS011;31672;47.638;19.026;2023-03-01T02:53:04;15.63;;;9.60;;
42760;SDS011;31672;47.638;19.026;2023-03-01T02:58:15;14.13;;;8.67;;
42760;SDS011;31672;47.638;19.026;2023-03-01T03:03:19;14.27;;;9.10;;
42760;SDS011;31672;47.638;19.026;2023-03-01T03:08:25;14.53;;;8.40;;
42760;SDS011;31672;47.638;19.026;2023-03-01T03:13:28;14.80;;;8.93;;
42760;SDS011;31672;47.638;19.026;2023-03-01T03:18:31;11.20;;;7.27;;
42760;SDS011;31672;47.638;19.026;2023-03-01T03:23:34;14.17;;;8.67;;
42760;SDS011;31672;47.638;19.026;2023-03-01T03:28:38;12.03;;;7.70;;
42760;SDS011;31672;47.638;19.026;2023-03-01T03:33:42;12.80;;;8.17;;
42760;SDS011;31672;47.638;19.026;2023-03-01T03:38:46;13.00;;;7.63;;
42760;SDS011;31672;47.638;19.026;2023-03-01T03:43:50;13.33;;;6.97;;
42760;SDS011;31672;47.638;19.026;2023-03-01T03:48:54;12.10;;;8.17;;
42760;SDS011;31672;47.638;19.026;2023-03-01T03:54:02;13.50;;;8.97;;
42760;SDS011;31672;47.638;19.026;2023-03-01T03:59:07;16.23;;;8.07;;
42760;SDS011;31672;47.638;19.026;2023-03-01T04:04:11;15.67;;;8.93;;
42760;SDS011;31672;47.638;19.026;2023-03-01T04:09:15;15.43;;;9.30;;
42760;SDS011;31672;47.638;19.026;2023-03-01T04:14:18;26.23;;;12.87;;
42760;SDS011;31672;47.638;19.026;2023-03-01T04:19:21;21.93;;;10.73;;
42760;SDS011;31672;47.638;19.026;2023-03-01T04:24:24;17.00;;;9.27;;
42760;SDS011;31672;47.638;19.026;2023-03-01T04:29:27;14.33;;;8.77;;
42760;SDS011;31672;47.638;19.026;2023-03-01T04:34:30;14.73;;;9.97;;
42760;SDS011;31672;47.638;19.026;2023-03-01T04:39:34;17.80;;;10.27;;
42760;SDS011;31672;47.638;19.026;2023-03-01T04:44:47;18.10;;;9.40;;
42760;SDS011;31672;47.638;19.026;2023-03-01T04:49:53;17.53;;;9.43;;
42760;SDS011;31672;47.638;19.026;2023-03-01T04:54:56;18.97;;;11.13;;
42760;SDS011;31672;47.638;19.026;2023-03-01T04:59:59;19.37;;;9.53;;
42760;SDS011;31672;47.638;19.026;2023-03-01T05:05:03;23.07;;;12.00;;
42760;SDS011;31672;47.638;19.026;2023-03-01T05:10:08;16.13;;;8.83;;
42760;SDS011;31672;47.638;19.026;2023-03-01T05:15:12;18.90;;;9.60;;
42760;SDS011;31672;47.638;19.026;2023-03-01T05:20:15;16.93;;;10.03;;
42760;SDS011;31672;47.638;19.026;2023-03-01T05:25:18;15.77;;;8.50;;
42760;SDS011;31672;47.638;19.026;2023-03-01T05:30:23;15.97;;;9.03;;
42760;SDS011;31672;47.638;19.026;2023-03-01T05:35:27;16.63;;;9.30;;
42760;SDS011;31672;47.638;19.026;2023-03-01T05:40:32;12.73;;;9.13;;
42760;SDS011;31672;47.638;19.026;2023-03-01T05:45:37;15.93;;;10.10;;
42760;SDS011;31672;47.638;19.026;2023-03-01T05:50:43;14.30;;;9.30;;
42760;SDS011;31672;47.638;19.026;2023-03-01T05:55:47;18.00;;;10.60;;
42760;SDS011;31672;47.638;19.026;2023-03-01T06:00:51;23.27;;;13.63;;
42760;SDS011;31672;47.638;19.026;2023-03-01T06:05:58;19.37;;;13.10;;
42760;SDS011;31672;47.638;19.026;2023-03-01T06:11:01;19.47;;;11.53;;
42760;SDS011;31672;47.638;19.026;2023-03-01T06:16:05;20.73;;;11.80;;
42760;SDS011;31672;47.638;19.026;2023-03-01T06:21:09;23.63;;;14.73;;
42760;SDS011;31672;47.638;19.026;2023-03-01T06:26:12;29.07;;;15.67;;
42760;SDS011;31672;47.638;19.026;2023-03-01T06:31:15;19.80;;;11.07;;
42760;SDS011;31672;47.638;19.026;2023-03-01T06:36:18;20.60;;;12.43;;
42760;SDS011;31672;47.638;19.026;2023-03-01T06:41:23;30.83;;;15.13;;
42760;SDS011;31672;47.638;19.026;2023-03-01T06:46:26;43.33;;;22.07;;
42760;SDS011;31672;47.638;19.026;2023-03-01T06:51:30;41.30;;;24.27;;
42760;SDS011;31672;47.638;19.026;2023-03-01T06:56:33;19.83;;;11.90;;
42760;SDS011;31672;47.638;19.026;2023-03-01T07:01:36;20.30;;;12.50;;
42760;SDS011;31672;47.638;19.026;2023-03-01T07:06:39;20.67;;;12.97;;
42760;SDS011;31672;47.638;19.026;2023-03-01T07:11:42;20.93;;;12.40;;
42760;SDS011;31672;47.638;19.026;2023-03-01T07:16:46;17.97;;;12.00;;
42760;SDS011;31672;47.638;19.026;2023-03-01T07:21:50;23.30;;;12.87;;
42760;SDS011;31672;47.638;19.026;2023-03-01T07:26:53;21.17;;;13.20;;
42760;SDS011;31672;47.638;19.026;2023-03-01T07:31:56;19.97;;;11.97;;
42760;SDS011;31672;47.638;19.026;2023-03-01T07:36:59;16.23;;;11.30;;
42760;SDS011;31672;47.638;19.026;2023-03-01T07:42:02;18.53;;;11.73;;
42760;SDS011;31672;47.638;19.026;2023-03-01T07:47:05;18.53;;;10.53;;
42760;SDS011;31672;47.638;19.026;2023-03-01T07:52:12;17.97;;;10.60;;
42760;SDS011;31672;47.638;19.026;2023-03-01T07:57:15;16.93;;;10.37;;
42760;SDS011;31672;47.638;19.026;2023-03-01T08:02:18;17.93;;;11.10;;
42760;SDS011;31672;47.638;19.026;2023-03-01T08:07:21;15.50;;;10.47;;
42760;SDS011;31672;47.638;19.026;2023-03-01T08:12:24;17.30;;;10.83;;
42760;SDS011;31672;47.638;19.026;2023-03-01T08:17:27;18.00;;;9.53;;
42760;SDS011;31672;47.638;19.026;2023-03-01T08:22:30;16.03;;;8.53;;
42760;SDS011;31672;47.638;19.026;2023-03-01T08:27:33;13.93;;;8.00;;
42760;SDS011;31672;47.638;19.026;2023-03-01T08:32:37;13.10;;;7.83;;
42760;SDS011;31672;47.638;19.026;2023-03-01T08:37:41;11.70;;;7.10;;
42760;SDS011;31672;47.638;19.026;2023-03-01T08:42:44;11.17;;;7.30;;
42760;SDS011;31672;47.638;19.026;2023-03-01T08:47:50;10.43;;;6.40;;
42760;SDS011;31672;47.638;19.026;2023-03-01T08:52:55;63.10;;;28.23;;
42760;SDS011;31672;47.638;19.026;2023-03-01T08:57:58;9.03;;;6.20;;
42760;SDS011;31672;47.638;19.026;2023-03-01T09:03:01;8.33;;;6.00;;
42760;SDS011;31672;47.638;19.026;2023-03-01T09:08:07;8.17;;;5.53;;
42760;SDS011;31672;47.638;19.026;2023-03-01T09:13:11;8.10;;;5.17;;
42760;SDS011;31672;47.638;19.026;2023-03-01T09:18:14;7.80;;;5.78;;
42760;SDS011;31672;47.638;19.026;2023-03-01T09:23:17;8.27;;;6.00;;
42760;SDS011;31672;47.638;19.026;2023-03-01T09:28:20;8.18;;;6.25;;
42760;SDS011;31672;47.638;19.026;2023-03-01T09:33:31;9.93;;;5.95;;
42760;SDS011;31672;47.638;19.026;2023-03-01T09:38:36;10.10;;;6.45;;
42760;SDS011;31672;47.638;19.026;2023-03-01T09:43:43;9.38;;;6.43;;
42760;SDS011;31672;47.638;19.026;2023-03-01T09:48:50;10.27;;;6.55;;
42760;SDS011;31672;47.638;19.026;2023-03-01T09:54:03;9.05;;;6.45;;
42760;SDS011;31672;47.638;19.026;2023-03-01T10:09:44;9.77;;;6.68;;
42760;SDS011;31672;47.638;19.026;2023-03-01T10:14:57;11.65;;;7.55;;
42760;SDS011;31672;47.638;19.026;2023-03-01T10:20:21;10.10;;;7.28;;
42760;SDS011;31672;47.638;19.026;2023-03-01T10:30:44;10.27;;;7.68;;
42760;SDS011;31672;47.638;19.026;2023-03-01T10:35:47;9.60;;;7.50;;
42760;SDS011;31672;47.638;19.026;2023-03-01T10:40:54;9.52;;;7.60;;
42760;SDS011;31672;47.638;19.026;2023-03-01T10:46:21;10.63;;;6.38;;
42760;SDS011;31672;47.638;19.026;2023-03-01T10:51:37;9.25;;;7.28;;
42760;SDS011;31672;47.638;19.026;2023-03-01T10:56:50;12.10;;;6.50;;
42760;SDS011;31672;47.638;19.026;2023-03-01T11:02:15;8.40;;;7.05;;
42760;SDS011;31672;47.638;19.026;2023-03-01T11:07:27;10.15;;;6.70;;
42760;SDS011;31672;47.638;19.026;2023-03-01T11:12:31;9.10;;;6.60;;
42760;SDS011;31672;47.638;19.026;2023-03-01T11:17:35;8.82;;;6.63;;
42760;SDS011;31672;47.638;19.026;2023-03-01T11:22:58;9.13;;;6.28;;
42760;SDS011;31672;47.638;19.026;2023-03-01T11:28:13;7.65;;;6.38;;
42760;SDS011;31672;47.638;19.026;2023-03-01T11:33:24;8.98;;;5.90;;
42760;SDS011;31672;47.638;19.026;2023-03-01T11:38:46;7.82;;;5.85;;
42760;SDS011;31672;47.638;19.026;2023-03-01T11:44:25;10.00;;;6.50;;
42760;SDS011;31672;47.638;19.026;2023-03-01T12:22:27;7.70;;;6.15;;
42760;SDS011;31672;47.638;19.026;2023-03-01T12:49:16;7.68;;;4.95;;
42760;SDS011;31672;47.638;19.026;2023-03-01T12:54:31;6.25;;;4.88;;
42760;SDS011;31672;47.638;19.026;2023-03-01T13:05:37;8.25;;;6.00;;
42760;SDS011;31672;47.638;19.026;2023-03-01T13:11:04;7.53;;;5.17;;
42760;SDS011;31672;47.638;19.026;2023-03-01T13:21:32;10.63;;;6.80;;
42760;SDS011;31672;47.638;19.026;2023-03-01T13:27:08;7.73;;;5.27;;
42760;SDS011;31672;47.638;19.026;2023-03-01T13:32:19;26.83;;;21.10;;
42760;SDS011;31672;47.638;19.026;2023-03-01T13:37:46;30.58;;;20.20;;
42760;SDS011;31672;47.638;19.026;2023-03-01T13:42:50;10.00;;;6.05;;
42760;SDS011;31672;47.638;19.026;2023-03-01T13:48:18;7.83;;;5.57;;
42760;SDS011;31672;47.638;19.026;2023-03-01T13:53:29;6.20;;;4.70;;
42760;SDS011;31672;47.638;19.026;2023-03-01T14:04:21;12.30;;;6.73;;
42760;SDS011;31672;47.638;19.026;2023-03-01T14:09:28;9.53;;;7.40;;
42760;SDS011;31672;47.638;19.026;2023-03-01T14:19:56;6.10;;;4.10;;
42760;SDS011;31672;47.638;19.026;2023-03-01T14:25:05;7.80;;;4.47;;
42760;SDS011;31672;47.638;19.026;2023-03-01T14:30:21;6.27;;;3.83;;
42760;SDS011;31672;47.638;19.026;2023-03-01T14:35:33;8.80;;;4.40;;
42760;SDS011;31672;47.638;19.026;2023-03-01T14:40:38;5.50;;;3.50;;
42760;SDS011;31672;47.638;19.026;2023-03-01T14:45:42;8.70;;;3.80;;
42760;SDS011;31672;47.638;19.026;2023-03-01T14:50:51;9.97;;;4.57;;
42760;SDS011;31672;47.638;19.026;2023-03-01T14:55:55;8.67;;;4.90;;
42760;SDS011;31672;47.638;19.026;2023-03-01T15:01:06;8.37;;;4.47;;
42760;SDS011;31672;47.638;19.026;2023-03-01T15:06:10;7.80;;;4.87;;
42760;SDS011;31672;47.638;19.026;2023-03-01T15:11:23;8.83;;;3.87;;
42760;SDS011;31672;47.638;19.026;2023-03-01T15:16:32;9.83;;;4.97;;
42760;SDS011;31672;47.638;19.026;2023-03-01T15:21:37;8.67;;;4.10;;
42760;SDS011;31672;47.638;19.026;2023-03-01T15:26:42;8.50;;;4.03;;
42760;SDS011;31672;47.638;19.026;2023-03-01T15:31:56;7.20;;;4.80;;
42760;SDS011;31672;47.638;19.026;2023-03-01T15:37:01;7.50;;;4.20;;
42760;SDS011;31672;47.638;19.026;2023-03-01T15:47:35;7.23;;;3.87;;
42760;SDS011;31672;47.638;19.026;2023-03-01T15:52:42;6.17;;;3.70;;
42760;SDS011;31672;47.638;19.026;2023-03-01T15:57:45;6.80;;;4.07;;
42760;SDS011;31672;47.638;19.026;2023-03-01T16:02:49;12.23;;;5.20;;
42760;SDS011;31672;47.638;19.026;2023-03-01T16:07:52;15.30;;;5.43;;
42760;SDS011;31672;47.638;19.026;2023-03-01T16:12:56;14.83;;;5.23;;
42760;SDS011;31672;47.638;19.026;2023-03-01T16:17:59;12.37;;;5.83;;
42760;SDS011;31672;47.638;19.026;2023-03-01T16:23:04;13.47;;;7.17;;
42760;SDS011;31672;47.638;19.026;2023-03-01T16:28:09;15.33;;;8.33;;
42760;SDS011;31672;47.638;19.026;2023-03-01T16:33:13;8.87;;;5.40;;
42760;SDS011;31672;47.638;19.026;2023-03-01T16:38:30;9.43;;;4.53;;
42760;SDS011;31672;47.638;19.026;2023-03-01T16:43:34;10.10;;;4.67;;
42760;SDS011;31672;47.638;19.026;2023-03-01T16:48:37;9.60;;;5.10;;
42760;SDS011;31672;47.638;19.026;2023-03-01T16:53:41;9.27;;;4.57;;
42760;SDS011;31672;47.638;19.026;2023-03-01T16:58:48;18.07;;;10.23;;
42760;SDS011;31672;47.638;19.026;2023-03-01T17:03:51;12.83;;;8.90;;
42760;SDS011;31672;47.638;19.026;2023-03-01T17:08:54;35.87;;;16.67;;
42760;SDS011;31672;47.638;19.026;2023-03-01T17:13:59;51.93;;;21.87;;
42760;SDS011;31672;47.638;19.026;2023-03-01T17:19:03;88.03;;;38.33;;
42760;SDS011;31672;47.638;19.026;2023-03-01T17:24:06;48.10;;;21.50;;
42760;SDS011;31672;47.638;19.026;2023-03-01T17:29:09;18.83;;;9.90;;
42760;SDS011;31672;47.638;19.026;2023-03-01T17:34:13;19.17;;;8.37;;
42760;SDS011;31672;47.638;19.026;2023-03-01T17:39:17;34.83;;;17.03;;
42760;SDS011;31672;47.638;19.026;2023-03-01T17:44:26;74.73;;;34.80;;
42760;SDS011;31672;47.638;19.026;2023-03-01T17:49:30;44.50;;;26.00;;
42760;SDS011;31672;47.638;19.026;2023-03-01T17:54:34;69.43;;;30.93;;
42760;SDS011;31672;47.638;19.026;2023-03-01T17:59:37;63.77;;;30.67;;
42760;SDS011;31672;47.638;19.026;2023-03-01T18:04:40;44.53;;;23.57;;
42760;SDS011;31672;47.638;19.026;2023-03-01T18:09:43;54.60;;;24.80;;
42760;SDS011;31672;47.638;19.026;2023-03-01T18:14:47;51.43;;;26.17;;
42760;SDS011;31672;47.638;19.026;2023-03-01T18:19:54;39.93;;;22.83;;
42760;SDS011;31672;47.638;19.026;2023-03-01T18:24:58;48.47;;;22.97;;
42760;SDS011;31672;47.638;19.026;2023-03-01T18:30:02;57.23;;;24.53;;
42760;SDS011;31672;47.638;19.026;2023-03-01T18:35:08;32.30;;;16.40;;
42760;SDS011;31672;47.638;19.026;2023-03-01T18:40:10;66.30;;;26.87;;
42760;SDS011;31672;47.638;19.026;2023-03-01T18:45:15;62.43;;;21.90;;
42760;SDS011;31672;47.638;19.026;2023-03-01T18:50:18;66.13;;;24.70;;
42760;SDS011;31672;47.638;19.026;2023-03-01T18:55:21;41.27;;;17.33;;
42760;SDS011;31672;47.638;19.026;2023-03-01T19:00:24;42.63;;;16.07;;
42760;SDS011;31672;47.638;19.026;2023-03-01T19:05:29;27.30;;;13.90;;
42760;SDS011;31672;47.638;19.026;2023-03-01T19:10:33;32.67;;;16.50;;
42760;SDS011;31672;47.638;19.026;2023-03-01T19:15:36;49.33;;;24.40;;
42760;SDS011;31672;47.638;19.026;2023-03-01T19:20:39;40.93;;;20.60;;
42760;SDS011;31672;47.638;19.026;2023-03-01T19:25:42;35.57;;;19.83;;
42760;SDS011;31672;47.638;19.026;2023-03-01T19:30:45;25.33;;;14.50;;
42760;SDS011;31672;47.638;19.026;2023-03-01T19:35:48;26.67;;;13.90;;
42760;SDS011;31672;47.638;19.026;2023-03-01T19:40:52;25.83;;;14.30;;
42760;SDS011;31672;47.638;19.026;2023-03-01T19:45:56;29.67;;;15.40;;
42760;SDS011;31672;47.638;19.026;2023-03-01T19:51:01;27.03;;;13.97;;
42760;SDS011;31672;47.638;19.026;2023-03-01T19:56:04;24.10;;;12.10;;
42760;SDS011;31672;47.638;19.026;2023-03-01T20:01:13;14.23;;;8.27;;
42760;SDS011;31672;47.638;19.026;2023-03-01T20:06:19;15.65;;;8.82;;
42760;SDS011;31672;47.638;19.026;2023-03-01T20:11:23;15.23;;;7.90;;
42760;SDS011;31672;47.638;19.026;2023-03-01T20:16:26;17.60;;;10.10;;
42760;SDS011;31672;47.638;19.026;2023-03-01T20:21:29;17.57;;;10.37;;
42760;SDS011;31672;47.638;19.026;2023-03-01T20:26:35;43.53;;;21.80;;
42760;SDS011;31672;47.638;19.026;2023-03-01T20:31:38;38.23;;;22.10;;
42760;SDS011;31672;47.638;19.026;2023-03-01T20:36:43;30.87;;;18.17;;
42760;SDS011;31672;47.638;19.026;2023-03-01T20:41:46;39.27;;;21.00;;
42760;SDS011;31672;47.638;19.026;2023-03-01T20:46:49;36.07;;;20.07;;
42760;SDS011;31672;47.638;19.026;2023-03-01T20:51:52;28.57;;;16.57;;
42760;SDS011;31672;47.638;19.026;2023-03-01T20:56:55;18.40;;;11.47;;
42760;SDS011;31672;47.638;19.026;2023-03-01T21:01:58;19.60;;;11.17;;
42760;SDS011;31672;47.638;19.026;2023-03-01T21:07:02;20.67;;;11.97;;
42760;SDS011;31672;47.638;19.026;2023-03-01T21:12:06;21.87;;;11.07;;
42760;SDS011;31672;47.638;19.026;2023-03-01T21:17:09;33.33;;;15.80;;
42760;SDS011;31672;47.638;19.026;2023-03-01T21:22:16;41.20;;;19.07;;
42760;SDS011;31672;47.638;19.026;2023-03-01T21:27:19;39.53;;;19.57;;
42760;SDS011;31672;47.638;19.026;2023-03-01T21:32:22;31.77;;;15.30;;
42760;SDS011;31672;47.638;19.026;2023-03-01T21:37:25;31.77;;;16.47;;
42760;SDS011;31672;47.638;19.026;2023-03-01T21:42:28;33.17;;;15.17;;
42760;SDS011;31672;47.638;19.026;2023-03-01T21:47:34;31.87;;;16.57;;
42760;SDS011;31672;47.638;19.026;2023-03-01T21:52:38;29.43;;;15.23;;
42760;SDS011;31672;47.638;19.026;2023-03-01T21:57:41;32.10;;;13.80;;
42760;SDS011;31672;47.638;19.026;2023-03-01T22:02:44;40.30;;;15.37;;
42760;SDS011;31672;47.638;19.026;2023-03-01T22:07:47;41.80;;;15.67;;
42760;SDS011;31672;47.638;19.026;2023-03-01T22:12:50;53.77;;;22.00;;
42760;SDS011;31672;47.638;19.026;2023-03-01T22:18:00;48.40;;;20.63;;
42760;SDS011;31672;47.638;19.026;2023-03-01T22:23:03;46.53;;;17.70;;
42760;SDS011;31672;47.638;19.026;2023-03-01T22:28:07;45.30;;;16.97;;
42760;SDS011;31672;47.638;19.026;2023-03-01T22:33:10;44.37;;;19.63;;
42760;SDS011;31672;47.638;19.026;2023-03-01T22:38:13;53.53;;;19.97;;
42760;SDS011;31672;47.638;19.026;2023-03-01T22:43:16;51.00;;;19.37;;
42760;SDS011;31672;47.638;19.026;2023-03-01T22:48:19;45.47;;;17.03;;
42760;SDS011;31672;47.638;19.026;2023-03-01T22:53:22;33.37;;;13.77;;
42760;SDS011;31672;47.638;19.026;2023-03-01T22:58:25;41.53;;;17.83;;
42760;SDS011;31672;47.638;19.026;2023-03-01T23:03:28;41.37;;;15.53;;
42760;SDS011;31672;47.638;19.026;2023-03-01T23:08:31;42.67;;;16.83;;
42760;SDS011;31672;47.638;19.026;2023-03-01T23:13:34;32.73;;;12.80;;
42760;SDS011;31672;47.638;19.026;2023-03-01T23:18:37;38.13;;;15.70;;
42760;SDS011;31672;47.638;19.026;2023-03-01T23:23:41;49.67;;;18.97;;
42760;SDS011;31672;47.638;19.026;2023-03-01T23:28:44;37.80;;;17.60;;
42760;SDS011;31672;47.638;19.026;2023-03-01T23:33:50;27.20;;;12.67;;
42760;SDS011;31672;47.638;19.026;2023-03-01T23:38:57;22.67;;;10.83;;
42760;SDS011;31672;47.638;19.026;2023-03-01T23:44:06;21.97;;;10.60;;
42760;SDS011;31672;47.638;19.026;2023-03-01T23:49:10;20.20;;;9.70;;
42760;SDS011;31672;47.638;19.026;2023-03-01T23:54:19;15.90;;;9.07;;
42760;SDS011;31672;47.638;19.026;2023-03-01T23:59:25;16.17;;;7.83;;
